Time;durP1;ratioP1;P1;durP2;ratioP2;P2;SDS_P1;SDS_P2;PMS_P1;PMS_P2;Temp;Humidity;BMP_temperature;BMP_pressure;BME280_temperature;BME280_humidity;BME280_pressure;Samples;Min_cycle;Max_cycle;Signal;HPM_P1;HPM_P2
2021/09/12 07:00:38;;;;;;;8.70;6.00;;;;;;;15.26;96.24;99054.13;5777340;23;20060;-78
2021/09/12 07:03:04;;;;;;;5.80;5.30;;;;;;;15.79;93.97;99048.91;4930104;29;20032;-78
2021/09/12 07:05:29;;;;;;;9.10;5.60;;;;;;;16.01;91.54;99052.47;4924122;29;20043;-78
2021/09/12 07:07:55;;;;;;;7.60;6.72;;;;;;;15.90;92.41;99051.97;4919264;29;20024;-78
2021/09/12 07:10:20;;;;;;;8.73;6.35;;;;;;;15.84;92.82;99054.81;4917416;29;20035;-78
2021/09/12 07:12:46;;;;;;;5.75;5.25;;;;;;;15.94;92.34;99053.59;4918813;23;20052;-73
2021/09/12 07:15:12;;;;;;;6.28;5.68;;;;;;;16.18;91.71;99052.69;4937862;29;20477;-73
2021/09/12 07:17:37;;;;;;;5.82;5.32;;;;;;;15.85;90.97;99061.75;4937774;29;20047;-75
2021/09/12 07:20:04;;;;;;;6.10;5.60;;;;;;;15.86;92.18;99060.88;4937572;29;20032;-75
2021/09/12 07:22:29;;;;;;;6.05;5.45;;;;;;;16.08;91.53;99061.78;4937736;29;20093;-75
2021/09/12 07:24:54;;;;;;;7.65;5.32;;;;;;;16.56;89.16;99062.66;4937666;29;20024;-75
2021/09/12 07:27:20;;;;;;;9.60;6.53;;;;;;;16.51;87.83;99065.44;4937455;29;20031;-75
2021/09/12 07:29:45;;;;;;;5.15;4.75;;;;;;;16.81;87.67;99073.94;4937625;29;20067;-75
2021/09/12 07:32:10;;;;;;;6.03;5.43;;;;;;;17.33;85.39;99073.63;4939069;29;20023;-75
2021/09/12 07:34:35;;;;;;;6.22;5.63;;;;;;;17.61;83.85;99076.81;4948445;28;20031;-75
2021/09/12 07:37:01;;;;;;;6.60;5.10;;;;;;;17.96;80.47;99071.88;4956379;28;20027;-75
2021/09/12 07:39:26;;;;;;;5.82;5.22;;;;;;;17.65;82.34;99073.16;4956765;28;20023;-75
2021/09/12 07:41:52;;;;;;;5.60;5.10;;;;;;;17.98;81.34;99080.53;4956399;28;20119;-72
2021/09/12 07:44:18;;;;;;;5.53;5.03;;;;;;;18.01;81.47;99077.78;4956262;28;20086;-72
2021/09/12 07:46:43;;;;;;;5.20;4.70;;;;;;;18.72;77.22;99078.97;4956398;28;20124;-72
2021/09/12 07:49:08;;;;;;;4.80;4.40;;;;;;;21.11;67.08;99071.16;4956250;28;20092;-72
2021/09/12 07:51:34;;;;;;;4.50;4.10;;;;;;;22.23;62.48;99079.56;4939851;28;20063;-72
2021/09/12 07:53:59;;;;;;;4.70;4.30;;;;;;;23.26;59.13;99075.78;4936959;29;20027;-72
2021/09/12 07:56:24;;;;;;;5.35;4.35;;;;;;;20.50;66.45;99081.53;4936821;29;20114;-72
2021/09/12 07:58:50;;;;;;;4.70;3.97;;;;;;;21.37;64.43;99069.72;4936898;29;20038;-72
2021/09/12 08:01:15;;;;;;;4.70;4.28;;;;;;;19.37;71.06;99083.78;4936802;29;20098;-72
2021/09/12 08:03:40;;;;;;;4.57;4.18;;;;;;;20.36;69.46;99077.91;4942855;29;20026;-73
2021/09/12 08:06:06;;;;;;;3.70;3.38;;;;;;;21.57;65.14;99079.97;4955622;29;20027;-73
2021/09/12 08:08:31;;;;;;;3.42;3.15;;;;;;;21.15;65.05;99085.88;4955822;29;20106;-73
2021/09/12 08:10:56;;;;;;;4.32;3.60;;;;;;;22.54;61.71;99075.03;4956289;28;20472;-74
2021/09/12 08:13:21;;;;;;;3.78;3.15;;;;;;;24.07;56.68;99071.19;4955500;29;20035;-74
2021/09/12 08:15:47;;;;;;;3.67;3.38;;;;;;;26.70;48.31;99072.13;4955944;28;20031;-74
2021/09/12 08:18:12;;;;;;;3.03;2.72;;;;;;;27.87;45.43;99077.59;4955819;28;20107;-74
2021/09/12 08:20:37;;;;;;;2.83;2.47;;;;;;;29.16;42.47;99074.44;4945634;29;20508;-74
2021/09/12 08:23:03;;;;;;;4.80;2.55;;;;;;;29.48;41.64;99078.66;4936334;29;20470;-74
2021/09/12 08:25:28;;;;;;;4.13;2.53;;;;;;;28.64;41.22;99076.34;4936397;29;20059;-74
2021/09/12 08:27:54;;;;;;;2.10;1.90;;;;;;;30.14;39.86;99078.78;4936482;29;20023;-74
2021/09/12 08:30:19;;;;;;;2.60;2.30;;;;;;;27.33;45.39;99089.19;4936380;29;20070;-74
2021/09/12 08:32:44;;;;;;;2.33;2.13;;;;;;;28.31;43.83;99080.94;4942228;29;20023;-74
2021/09/12 08:35:11;;;;;;;1.77;1.67;;;;;;;30.97;38.49;99083.25;4947459;29;20031;-74
2021/09/12 08:37:36;;;;;;;2.40;2.15;;;;;;;30.24;39.23;99089.44;4955535;28;20028;-74
2021/09/12 08:40:03;;;;;;;3.58;3.28;;;;;;;32.89;34.08;99083.41;4955360;28;20585;-74
2021/09/12 08:42:29;;;;;;;3.58;3.28;;;;;;;32.81;33.83;99090.59;4955125;28;20038;-74
2021/09/12 08:44:54;;;;;;;2.05;1.80;;;;;;;31.40;36.44;99100.47;4955301;28;20027;-74
2021/09/12 08:47:20;;;;;;;1.85;1.60;;;;;;;33.17;33.54;99093.91;4937808;28;20122;-74
2021/09/12 08:49:46;;;;;;;3.47;1.95;;;;;;;31.57;34.43;99100.59;4942079;29;20038;-74
2021/09/12 08:52:12;;;;;;;1.92;1.73;;;;;;;32.24;33.91;99091.94;4935909;29;20158;-74
2021/09/12 08:54:38;;;;;;;2.10;1.90;;;;;;;30.94;36.28;99102.25;4935846;28;20027;-74
2021/09/12 08:57:04;;;;;;;3.67;2.28;;;;;;;30.53;36.89;99086.69;4935809;29;20035;-73
2021/09/12 08:59:32;;;;;;;2.08;1.73;;;;;;;32.31;33.87;99084.13;4935957;29;20038;-74
2021/09/12 09:01:59;;;;;;;1.95;1.80;;;;;;;31.72;34.49;99083.00;4933794;29;20024;-74
2021/09/12 09:04:27;;;;;;;1.95;1.80;;;;;;;33.30;32.07;99075.47;4943477;29;20031;-74
2021/09/12 09:07:11;;;;;;;1.92;1.40;;;;;;;32.56;33.73;99073.56;4932352;29;20107;-78
2021/09/12 09:09:47;;;;;;;2.30;2.00;;;;;;;32.83;32.58;99073.34;4946523;28;20023;-77
2021/09/12 09:12:30;;;;;;;1.40;1.30;;;;;;;32.86;32.54;99075.69;4954654;28;20027;-78
2021/09/12 09:15:07;;;;;;;5.28;1.50;;;;;;;29.23;36.77;99082.72;4954823;28;20632;-78
2021/09/12 09:17:52;;;;;;;2.08;1.77;;;;;;;30.93;36.47;99071.13;4954721;28;20023;-78
2021/09/12 09:20:31;;;;;;;2.42;1.33;;;;;;;33.10;31.82;99063.38;4952044;28;20547;-74
2021/09/12 09:22:57;;;;;;;1.85;1.15;;;;;;;32.31;31.48;99062.66;4936606;28;20087;-74
2021/09/12 09:25:26;;;;;;;1.60;1.30;;;;;;;34.51;28.38;99054.94;4935506;29;20027;-74
2021/09/12 09:28:06;;;;;;;8.40;1.55;;;;;;;33.42;29.68;99058.06;4935419;29;20473;-74
2021/09/12 09:30:47;;;;;;;1.83;1.42;;;;;;;33.16;30.00;99057.31;4935318;29;20083;-74
2021/09/12 09:33:12;;;;;;;2.90;1.38;;;;;;;33.81;29.56;99046.66;4936915;29;20019;-74
2021/09/12 09:35:39;;;;;;;1.63;1.33;;;;;;;33.58;29.54;99051.03;4939082;29;20038;-74
2021/09/12 09:38:05;;;;;;;1.95;1.25;;;;;;;34.39;28.39;99045.53;4935215;29;20028;-74
2021/09/12 09:40:30;;;;;;;2.67;1.10;;;;;;;35.56;27.16;99043.78;4935094;29;20114;-74
2021/09/12 09:42:55;;;;;;;2.83;1.20;;;;;;;35.81;26.05;99046.25;4934980;29;20024;-74
2021/09/12 09:45:22;;;;;;;1.50;1.00;;;;;;;33.93;28.70;99033.69;4935072;29;20071;-75
2021/09/12 09:47:50;;;;;;;0.98;0.90;;;;;;;31.76;31.32;99046.84;4935122;29;20071;-75
2021/09/12 09:50:21;;;;;;;5.05;1.10;;;;;;;35.13;27.97;99047.94;4929225;29;20039;-75
2021/09/12 09:52:49;;;;;;;1.10;0.85;;;;;;;34.73;26.48;99028.28;4915798;29;20035;-75
2021/09/12 09:55:16;;;;;;;4.03;1.33;;;;;;;34.52;27.44;99023.47;4916028;29;20032;-75
2021/09/12 09:57:50;;;;;;;15.32;12.73;;;;;;;35.68;24.59;99033.38;4915928;29;20048;-75
2021/09/12 10:00:17;;;;;;;2.72;1.10;;;;;;;35.62;25.32;99031.41;4915954;29;20024;-75
2021/09/12 10:02:43;;;;;;;1.50;1.08;;;;;;;33.01;28.58;99032.97;4931133;29;20015;-75
2021/09/12 10:05:11;;;;;;;4.13;1.60;;;;;;;33.14;28.48;99027.13;4938282;29;20396;-75
2021/09/12 10:07:39;;;;;;;1.50;1.25;;;;;;;29.10;35.52;99029.59;4953795;28;20058;-74
2021/09/12 10:10:16;;;;;;;0.98;0.90;;;;;;;32.92;29.22;99032.09;4953976;28;20027;-74
2021/09/12 10:12:52;;;;;;;1.42;1.33;;;;;;;33.42;29.08;99031.22;4953554;28;20448;-75
2021/09/12 10:15:22;;;;;;;2.83;1.23;;;;;;;30.55;33.35;99036.53;4953784;28;20034;-75
2021/09/12 10:17:49;;;;;;;1.35;1.25;;;;;;;32.52;30.73;99027.41;4953860;28;20141;-75
2021/09/12 10:20:17;;;;;;;0.98;0.98;;;;;;;33.43;28.60;99027.50;4947846;28;20041;-75
2021/09/12 10:23:00;;;;;;;1.20;1.02;;;;;;;33.18;29.80;99025.78;4933118;29;20401;-75
2021/09/12 10:25:49;;;;;;;9.93;8.18;;;;;;;32.80;30.10;99025.34;4934541;29;20485;-75
2021/09/12 10:28:31;;;;;;;3.58;2.03;;;;;;;30.63;33.17;99016.09;4934471;29;20135;-74
2021/09/12 10:30:57;;;;;;;1.45;1.30;;;;;;;31.47;32.33;99010.44;4951843;29;20515;-74
2021/09/12 10:33:26;;;;;;;2.50;1.00;;;;;;;31.48;31.89;99012.16;4946373;28;20031;-74
2021/09/12 10:35:56;;;;;;;2.40;0.93;;;;;;;32.81;30.14;99002.00;4951138;29;20023;-74
2021/09/12 10:38:36;;;;;;;1.35;1.15;;;;;;;34.15;27.45;98997.19;4954135;28;20163;-74
2021/09/12 10:41:01;;;;;;;4.03;1.00;;;;;;;34.55;27.31;98995.38;4953528;28;20026;-75
2021/09/12 10:43:33;;;;;;;1.00;0.90;;;;;;;33.05;27.57;98995.88;4953366;28;20031;-74
2021/09/12 10:46:04;;;;;;;1.23;0.85;;;;;;;34.10;26.70;98996.88;4953497;28;20023;-75
2021/09/12 10:48:32;;;;;;;1.83;0.88;;;;;;;34.96;26.26;98994.19;4953399;28;20381;-75
2021/09/12 10:50:59;;;;;;;1.30;0.80;;;;;;;33.72;27.03;98986.66;4942257;28;20474;-74
2021/09/12 10:53:43;;;;;;;0.90;0.90;;;;;;;33.67;27.04;98990.88;4934225;29;20412;-75
2021/09/12 10:56:09;;;;;;;1.85;1.10;;;;;;;34.05;27.21;98991.19;4934275;29;20027;-74
2021/09/12 10:58:35;;;;;;;5.43;4.93;;;;;;;33.07;27.94;98988.50;4934017;29;20024;-74
2021/09/12 11:01:03;;;;;;;2.10;1.83;;;;;;;33.13;28.55;98987.84;4934199;29;20539;-74
2021/09/12 11:03:29;;;;;;;2.72;0.85;;;;;;;32.35;29.39;98988.94;4940088;29;20019;-74
2021/09/12 11:05:55;;;;;;;1.48;0.90;;;;;;;34.19;25.96;98982.41;4947005;29;20079;-74
2021/09/12 11:08:40;;;;;;;2.08;1.00;;;;;;;34.47;25.54;98988.16;4945207;28;20024;-74
2021/09/12 11:11:07;;;;;;;1.77;0.90;;;;;;;33.41;27.00;98978.44;4953452;28;20035;-74
2021/09/12 11:13:34;;;;;;;1.25;0.57;;;;;;;33.74;26.74;98975.72;4952635;28;20034;-74
2021/09/12 11:16:08;;;;;;;1.02;0.85;;;;;;;31.96;29.12;98978.69;4943649;28;20086;-74
2021/09/12 11:18:41;;;;;;;1.05;0.90;;;;;;;30.06;33.00;98979.72;4951568;28;20023;-74
2021/09/12 11:21:06;;;;;;;1.67;0.80;;;;;;;32.63;28.29;98969.91;4938702;28;20019;-74
2021/09/12 11:23:35;;;;;;;2.90;0.70;;;;;;;32.70;27.81;98977.16;4932188;29;20031;-74
2021/09/12 11:26:00;;;;;;;;;;;;;;;31.45;28.35;98972.28;4932567;29;20031;-74
2021/09/12 11:28:28;;;;;;;1.20;0.83;;;;;;;32.99;27.66;98966.00;4932518;29;19915;-75
2021/09/12 11:30:55;;;;;;;1.77;0.90;;;;;;;33.33;26.97;98962.31;4933980;29;20300;-75
2021/09/12 11:33:20;;;;;;;1.10;0.70;;;;;;;34.59;25.20;98964.41;4943201;29;20126;-75
2021/09/12 11:35:59;;;;;;;4.93;1.10;;;;;;;34.58;25.81;98968.13;4953528;29;20062;-75
2021/09/12 11:38:29;;;;;;;1.10;0.90;;;;;;;34.05;27.54;98958.91;4956463;28;20473;-75
2021/09/12 11:40:58;;;;;;;2.25;1.95;;;;;;;33.05;27.60;98952.91;4956509;28;20038;-75
2021/09/12 11:43:24;;;;;;;1.20;1.10;;;;;;;33.35;27.87;98944.19;4956212;28;20030;-75
2021/09/12 11:46:09;;;;;;;0.90;0.90;;;;;;;32.51;28.47;98952.44;4956397;28;20078;-75
2021/09/12 11:48:36;;;;;;;1.27;0.80;;;;;;;32.42;28.63;98952.41;4956288;28;20034;-74
2021/09/12 11:51:01;;;;;;;2.22;0.82;;;;;;;33.02;27.77;98942.50;4944329;28;20031;-75
2021/09/12 11:53:27;;;;;;;2.38;0.95;;;;;;;33.53;27.18;98941.34;4936899;29;20035;-74
2021/09/12 11:55:53;;;;;;;1.27;0.95;;;;;;;32.57;28.38;98941.06;4937117;29;20394;-74
2021/09/12 11:58:20;;;;;;;1.42;0.80;;;;;;;30.76;30.50;98940.84;4936926;29;20031;-74
2021/09/12 12:00:50;;;;;;;1.23;0.80;;;;;;;32.57;28.48;98943.75;4936995;29;20028;-75
2021/09/12 12:03:24;;;;;;;3.40;0.80;;;;;;;31.53;28.80;98943.88;4942548;29;20034;-75
2021/09/12 12:05:50;;;;;;;1.25;0.70;;;;;;;30.72;30.57;98944.81;4953559;29;20023;-74
2021/09/12 12:08:17;;;;;;;1.35;0.90;;;;;;;28.79;33.63;98936.28;4956128;28;20108;-74
2021/09/12 12:10:43;;;;;;;1.40;1.00;;;;;;;27.60;36.77;98936.94;4954719;29;20507;-74
2021/09/12 12:13:09;;;;;;;1.98;1.35;;;;;;;26.71;37.65;98937.38;4955651;28;20031;-74
2021/09/12 12:15:43;;;;;;;1.65;1.15;;;;;;;26.48;39.64;98931.28;4955857;28;20035;-74
2021/09/12 12:18:17;;;;;;;3.88;1.40;;;;;;;26.06;39.08;98921.31;4955781;28;20103;-74
2021/09/12 12:20:44;;;;;;;1.35;1.17;;;;;;;25.67;40.20;98914.59;4946266;28;20480;-74
2021/09/12 12:23:19;;;;;;;1.80;1.40;;;;;;;25.00;40.73;98919.75;4936452;29;20454;-74
2021/09/12 12:25:47;;;;;;;1.40;1.30;;;;;;;25.31;41.02;98919.13;4936569;29;20027;-74
2021/09/12 12:28:14;;;;;;;1.75;1.10;;;;;;;25.23;41.01;98920.69;4936454;29;20469;-74
2021/09/12 12:30:40;;;;;;;4.18;1.05;;;;;;;25.61;41.51;98920.41;4936363;29;20036;-74
2021/09/12 12:33:06;;;;;;;1.42;1.13;;;;;;;25.42;41.72;98914.81;4942118;29;20027;-74
2021/09/12 12:35:32;;;;;;;1.85;1.00;;;;;;;25.33;41.56;98917.19;4950562;29;20090;-74
2021/09/12 12:37:57;;;;;;;4.30;1.17;;;;;;;25.48;41.53;98917.00;4955618;28;20485;-74
2021/09/12 12:40:23;;;;;;;1.45;1.13;;;;;;;25.62;41.46;98916.78;4955469;28;20031;-74
2021/09/12 12:42:50;;;;;;;5.70;2.00;;;;;;;25.29;40.47;98910.47;4953917;28;20023;-74
2021/09/12 12:45:28;;;;;;;3.50;0.90;;;;;;;25.19;41.66;98909.47;4955396;28;20106;-74
2021/09/12 12:47:56;;;;;;;1.10;1.00;;;;;;;25.03;42.68;98904.44;4955224;28;20430;-74
2021/09/12 12:50:38;;;;;;;4.07;1.10;;;;;;;25.07;42.07;98905.94;4948620;28;20495;-74
2021/09/12 12:53:25;;;;;;;2.58;1.20;;;;;;;23.62;44.34;98908.44;4935900;29;20027;-74
2021/09/12 12:55:53;;;;;;;1.20;1.10;;;;;;;23.82;44.56;98910.56;4936149;29;20186;-74
2021/09/12 12:58:19;;;;;;;1.27;1.10;;;;;;;23.46;45.53;98899.91;4935818;29;20106;-74
2021/09/12 13:00:46;;;;;;;3.05;1.30;;;;;;;24.39;43.31;98892.47;4935942;29;20125;-74
2021/09/12 13:03:11;;;;;;;2.08;1.17;;;;;;;24.36;44.89;98889.06;4941554;29;20385;-74
2021/09/12 13:05:37;;;;;;;1.88;1.00;;;;;;;24.02;44.58;98892.44;4950543;29;20035;-74
2021/09/12 13:08:06;;;;;;;2.10;1.20;;;;;;;24.39;44.77;98881.88;4954808;28;20062;-74
2021/09/12 13:10:33;;;;;;;1.75;1.15;;;;;;;23.31;45.25;98894.69;4954894;28;20031;-74
2021/09/12 13:12:59;;;;;;;2.28;1.05;;;;;;;23.25;46.25;98884.53;4977426;23;20082;-80
2021/09/12 13:15:24;;;;;;;2.50;1.10;;;;;;;23.66;45.54;98882.66;4960139;28;20034;-80
2021/09/12 13:17:50;;;;;;;2.70;1.23;;;;;;;23.55;45.47;98876.28;4957717;28;20019;-80
2021/09/12 13:20:15;;;;;;;1.90;1.05;;;;;;;24.41;43.80;98869.34;4975556;28;20085;-80
2021/09/12 13:22:40;;;;;;;1.67;1.15;;;;;;;24.32;44.11;98866.41;4972478;28;20037;-80
2021/09/12 13:25:06;;;;;;;2.78;1.45;;;;;;;24.91;43.80;98862.13;4954731;29;20481;-80
2021/09/12 13:27:31;;;;;;;2.15;1.00;;;;;;;24.57;44.24;98869.94;4954615;28;20027;-80
2021/09/12 13:29:57;;;;;;;0.95;0.88;;;;;;;24.35;43.40;98866.16;4954959;29;20034;-80
2021/09/12 13:32:22;;;;;;;1.15;1.05;;;;;;;24.58;42.46;98866.31;4961231;28;20022;-80
2021/09/12 13:34:47;;;;;;;1.77;1.08;;;;;;;24.82;41.88;98864.50;4965769;28;20018;-80
2021/09/12 13:37:12;;;;;;;3.28;1.00;;;;;;;24.70;42.84;98865.41;4974104;28;20361;-80
2021/09/12 13:39:38;;;;;;;1.13;1.02;;;;;;;25.31;41.98;98866.09;4973839;28;20027;-80
2021/09/12 13:42:03;;;;;;;0.98;0.88;;;;;;;24.89;41.99;98859.56;4973535;28;20030;-80
2021/09/12 13:44:28;;;;;;;1.45;0.85;;;;;;;24.87;42.11;98862.34;4954144;28;20057;-79
2021/09/12 13:46:54;;;;;;;1.88;1.17;;;;;;;25.00;41.61;98864.91;4962236;28;20500;-81
2021/09/12 13:49:19;;;;;;;1.60;1.10;;;;;;;24.20;43.02;98864.66;4962123;28;20019;-81
2021/09/12 13:51:44;;;;;;;2.63;1.30;;;;;;;24.86;42.14;98855.34;4962247;28;20023;-80
2021/09/12 13:54:10;;;;;;;3.15;1.23;;;;;;;24.93;42.03;98852.22;4973296;28;20026;-80
2021/09/12 13:56:35;;;;;;;1.30;1.00;;;;;;;24.26;44.00;98850.94;4965524;28;20031;-80
2021/09/12 13:59:01;;;;;;;1.20;1.10;;;;;;;24.05;45.09;98852.50;4972286;28;20468;-80
2021/09/12 14:01:26;;;;;;;1.38;1.27;;;;;;;24.09;44.61;98854.00;4973416;28;20113;-80
2021/09/12 14:03:51;;;;;;;2.70;1.20;;;;;;;23.59;44.38;98855.75;4972473;28;20056;-80
2021/09/12 14:06:18;;;;;;;1.52;1.10;;;;;;;23.24;45.87;98853.75;4954214;28;20476;-80
2021/09/12 14:08:43;;;;;;;1.23;1.10;;;;;;;22.59;46.84;98851.09;4954076;28;20543;-80
2021/09/12 14:11:11;;;;;;;2.85;1.70;;;;;;;22.99;45.59;98844.00;4953951;28;20030;-80
2021/09/12 14:13:36;;;;;;;4.03;1.48;;;;;;;22.93;46.11;98846.22;4953930;28;20038;-80
2021/09/12 14:16:01;;;;;;;2.05;1.30;;;;;;;23.13;46.85;98843.06;4953958;28;20027;-80
2021/09/12 14:18:27;;;;;;;2.03;1.60;;;;;;;23.21;46.71;98846.03;4961928;28;20457;-80
2021/09/12 14:20:52;;;;;;;11.98;8.32;;;;;;;23.83;46.01;98843.44;4954022;28;20035;-80
2021/09/12 14:23:18;;;;;;;4.35;1.35;;;;;;;23.62;45.47;98844.94;4953977;28;20056;-80
2021/09/12 14:25:43;;;;;;;5.22;1.20;;;;;;;22.73;47.25;98845.75;4961638;28;20481;-80
2021/09/12 14:28:09;;;;;;;3.40;1.23;;;;;;;23.63;46.42;98840.50;4953815;28;20035;-80
2021/09/12 14:30:38;;;;;;;2.22;1.10;;;;;;;23.92;43.91;98841.13;4953942;28;20023;-80
2021/09/12 14:33:05;;;;;;;2.63;2.38;;;;;;;24.30;45.76;98825.94;4965949;28;20640;-78
2021/09/12 14:35:31;;;;;;;1.83;1.35;;;;;;;24.06;44.94;98833.03;4982715;28;20039;-78
2021/09/12 14:37:57;;;;;;;2.65;1.10;;;;;;;23.63;45.61;98836.06;4969921;28;20027;-78
2021/09/12 14:40:22;;;;;;;3.13;1.20;;;;;;;23.88;45.76;98829.06;4953856;28;20106;-78
2021/09/12 14:42:48;;;;;;;3.20;0.98;;;;;;;24.03;46.15;98835.88;4953587;28;20110;-78
2021/09/12 14:45:13;;;;;;;2.95;1.63;;;;;;;23.77;46.38;98838.59;4953972;28;20027;-78
2021/09/12 14:47:44;;;;;;;2.00;1.35;;;;;;;23.94;46.95;98828.63;4953666;28;20101;-77
2021/09/12 14:50:12;;;;;;;1.65;1.42;;;;;;;23.65;46.46;98828.91;4953731;28;20042;-77
2021/09/12 14:52:38;;;;;;;3.25;1.20;;;;;;;23.67;46.62;98826.16;4953531;28;20402;-77
2021/09/12 14:55:04;;;;;;;1.70;1.35;;;;;;;23.82;45.90;98814.47;4953489;28;20062;-77
2021/09/12 14:57:29;;;;;;;1.60;1.30;;;;;;;23.89;46.80;98821.03;4953699;28;20365;-77
2021/09/12 14:59:54;;;;;;;2.38;1.55;;;;;;;23.36;47.38;98822.97;4953458;28;20050;-77
2021/09/12 15:02:20;;;;;;;4.57;1.30;;;;;;;24.20;45.76;98821.44;4958228;28;20057;-77
2021/09/12 15:04:45;;;;;;;1.52;1.20;;;;;;;23.83;45.74;98811.69;4964747;28;20030;-77
2021/09/12 15:07:11;;;;;;;2.13;1.30;;;;;;;23.55;46.57;98814.59;4975225;28;20045;-77
2021/09/12 15:09:36;;;;;;;4.35;1.40;;;;;;;23.19;47.35;98810.91;4976648;28;20027;-77
2021/09/12 15:12:01;;;;;;;1.67;1.40;;;;;;;23.44;46.69;98798.63;4976454;28;20023;-77
2021/09/12 15:14:27;;;;;;;2.58;1.25;;;;;;;23.55;47.24;98801.38;4976348;28;20026;-77
2021/09/12 15:16:52;;;;;;;1.83;1.33;;;;;;;23.27;47.86;98800.66;4976409;28;20511;-77
2021/09/12 15:19:17;;;;;;;6.13;1.52;;;;;;;23.38;47.21;98793.78;4975177;28;20018;-77
2021/09/12 15:21:44;;;;;;;1.42;1.33;;;;;;;23.39;47.47;98796.31;4976234;28;20105;-77
2021/09/12 15:24:10;;;;;;;3.67;1.50;;;;;;;22.81;48.09;98795.84;4976580;28;20030;-77
2021/09/12 15:26:35;;;;;;;2.45;1.20;;;;;;;23.38;47.15;98799.91;4968525;28;20117;-77
2021/09/12 15:29:01;;;;;;;1.83;1.38;;;;;;;23.90;46.43;98790.94;4972206;28;20027;-77
2021/09/12 15:31:26;;;;;;;2.10;1.30;;;;;;;23.72;47.17;98786.97;4969610;28;20488;-77
2021/09/12 15:33:51;;;;;;;3.55;2.22;;;;;;;22.92;48.53;98789.91;4974355;28;20062;-77
2021/09/12 15:36:17;;;;;;;1.85;1.35;;;;;;;22.95;47.90;98786.19;4956908;28;20106;-77
2021/09/12 15:38:42;;;;;;;2.00;1.63;;;;;;;22.53;49.09;98790.72;4956680;28;20485;-77
2021/09/12 15:41:07;;;;;;;2.20;1.50;;;;;;;23.02;48.02;98793.59;4956683;28;20126;-77
2021/09/12 15:43:33;;;;;;;3.53;1.70;;;;;;;23.30;46.57;98786.38;4956572;28;20090;-77
2021/09/12 15:45:58;;;;;;;2.50;1.40;;;;;;;23.18;46.88;98793.38;4956592;28;20085;-77
2021/09/12 15:48:23;;;;;;;6.75;1.33;;;;;;;22.80;48.41;98794.16;4956603;28;20043;-77
2021/09/12 15:50:49;;;;;;;1.40;1.23;;;;;;;23.04;49.04;98791.69;4966887;28;20027;-77
2021/09/12 15:53:14;;;;;;;1.92;1.35;;;;;;;23.55;47.59;98796.09;4975714;28;20427;-77
2021/09/12 15:55:40;;;;;;;1.98;1.20;;;;;;;23.55;46.60;98780.22;4975745;28;20065;-77
2021/09/12 15:58:05;;;;;;;3.00;1.50;;;;;;;23.43;46.84;98781.06;4975802;28;20018;-77
2021/09/12 16:00:31;;;;;;;1.58;1.48;;;;;;;22.74;48.46;98789.31;4975683;28;20452;-77
2021/09/12 16:02:56;;;;;;;1.52;1.38;;;;;;;22.70;49.39;98782.53;4967355;28;20031;-77
2021/09/12 16:05:21;;;;;;;1.80;1.40;;;;;;;22.92;48.25;98781.97;4962637;28;20037;-77
2021/09/12 16:07:47;;;;;;;2.70;1.60;;;;;;;22.79;49.18;98786.34;4956082;28;20111;-77
2021/09/12 16:10:12;;;;;;;2.00;1.25;;;;;;;22.67;48.87;98781.88;4956278;28;20023;-77
2021/09/12 16:12:38;;;;;;;2.00;1.30;;;;;;;22.82;48.78;98781.72;4956014;28;20443;-77
2021/09/12 16:15:04;;;;;;;2.45;1.48;;;;;;;22.86;47.92;98781.47;4963678;28;20046;-77
2021/09/12 16:17:30;;;;;;;2.20;1.40;;;;;;;22.39;49.57;98785.53;4969700;28;20085;-79
2021/09/12 16:19:56;;;;;;;2.33;1.50;;;;;;;22.58;49.45;98780.72;4975730;28;20057;-79
2021/09/12 16:22:21;;;;;;;3.47;1.42;;;;;;;22.86;48.14;98781.47;4975083;28;20392;-78
2021/09/12 16:24:46;;;;;;;1.15;1.10;;;;;;;22.86;48.89;98781.47;4975427;28;20105;-78
2021/09/12 16:27:12;;;;;;;3.13;1.50;;;;;;;22.90;48.92;98780.38;4971105;28;20024;-77
2021/09/12 16:29:38;;;;;;;3.92;1.40;;;;;;;22.75;49.97;98788.34;4962115;28;20546;-77
2021/09/12 16:32:04;;;;;;;2.17;1.63;;;;;;;22.42;50.96;98782.69;4973326;28;20034;-77
2021/09/12 16:34:29;;;;;;;1.85;1.75;;;;;;;22.20;50.94;98776.19;4974547;28;20399;-77
2021/09/12 16:36:54;;;;;;;1.40;1.30;;;;;;;22.11;51.97;98779.44;4975044;28;20038;-77
2021/09/12 16:39:20;;;;;;;1.45;1.35;;;;;;;22.17;51.34;98779.03;4975183;28;20022;-77
2021/09/12 16:41:45;;;;;;;4.75;1.38;;;;;;;22.14;52.15;98779.22;4973903;28;20023;-77
2021/09/12 16:44:12;;;;;;;3.28;1.55;;;;;;;21.78;53.88;98783.25;4974819;28;20026;-77
2021/09/12 16:49:12;;;;;;;3.00;2.28;;;;;;;21.52;56.30;98781.44;4974765;28;20022;-77
2021/09/12 16:51:38;;;;;;;2.80;1.35;;;;;;;21.40;56.73;98782.19;4974682;28;20494;-77
2021/09/12 16:54:03;;;;;;;1.80;1.45;;;;;;;21.23;58.45;98786.69;4974620;28;20037;-77
2021/09/12 16:56:29;;;;;;;2.72;1.48;;;;;;;21.16;58.88;98785.34;4974524;28;20026;-77
2021/09/12 16:58:55;;;;;;;4.18;1.95;;;;;;;21.09;60.16;98778.78;4974924;28;20023;-77
2021/09/12 17:01:20;;;;;;;4.28;2.22;;;;;;;20.64;61.91;98783.22;4974410;28;20112;-77
2021/09/12 17:03:45;;;;;;;3.55;1.67;;;;;;;20.52;63.09;98779.53;4966553;28;20089;-77
2021/09/12 17:06:11;;;;;;;5.85;1.90;;;;;;;20.27;64.50;98785.34;4927602;28;20047;-77
2021/09/12 17:08:36;;;;;;;2.42;1.73;;;;;;;20.16;65.21;98777.22;5006348;28;20113;-77
2021/09/12 17:11:02;;;;;;;1.83;1.63;;;;;;;20.10;65.30;98782.81;4993798;28;20033;-77
2021/09/12 17:13:27;;;;;;;2.92;1.80;;;;;;;19.92;65.78;98778.56;4993740;28;20117;-77
2021/09/12 17:15:52;;;;;;;2.53;2.10;;;;;;;19.88;65.86;98777.09;4993675;28;20049;-77
2021/09/12 17:18:19;;;;;;;2.03;1.60;;;;;;;19.73;66.09;98784.88;4993707;28;20081;-77
2021/09/12 17:20:44;;;;;;;2.95;1.85;;;;;;;19.55;67.17;98785.84;4993729;28;20068;-77
2021/09/12 17:23:09;;;;;;;2.40;2.17;;;;;;;19.46;67.87;98791.59;4993488;28;20026;-77
2021/09/12 17:25:36;;;;;;;4.38;1.83;;;;;;;19.33;68.01;98795.81;4993594;28;20033;-77
2021/09/12 17:28:01;;;;;;;3.00;2.00;;;;;;;19.36;68.05;98795.66;4993589;28;20034;-77
2021/09/12 17:30:31;;;;;;;2.20;2.00;;;;;;;19.35;67.58;98802.69;4993145;28;20454;-77
2021/09/12 17:32:56;;;;;;;2.42;2.22;;;;;;;19.18;68.42;98800.94;4981741;28;20026;-77
2021/09/12 17:35:23;;;;;;;3.03;1.90;;;;;;;19.03;68.70;98799.13;4993301;28;20391;-77
2021/09/12 17:37:48;;;;;;;3.78;2.08;;;;;;;18.87;69.42;98799.09;4993212;28;20105;-77
2021/09/12 17:40:13;;;;;;;5.70;2.10;;;;;;;18.82;70.40;98810.75;4993282;28;20105;-77
2021/09/12 17:42:39;;;;;;;1.70;1.60;;;;;;;18.52;71.27;98803.47;4993396;28;20091;-77
2021/09/12 17:45:05;;;;;;;3.25;1.65;;;;;;;18.41;71.67;98805.75;4993025;28;20026;-76
2021/09/12 17:47:30;;;;;;;1.98;1.88;;;;;;;18.32;71.91;98806.22;4993070;28;20037;-76
2021/09/12 17:49:55;;;;;;;3.53;2.13;;;;;;;18.28;72.30;98802.91;4993125;28;20038;-76
2021/09/12 17:52:21;;;;;;;1.85;1.70;;;;;;;18.17;73.06;98813.06;4992874;28;20034;-76
2021/09/12 17:54:46;;;;;;;1.60;1.50;;;;;;;18.12;73.70;98813.28;4993605;28;20038;-76
2021/09/12 17:57:11;;;;;;;2.78;2.00;;;;;;;18.04;74.12;98810.19;4992911;28;20160;-76
2021/09/12 17:59:37;;;;;;;2.30;2.00;;;;;;;18.00;74.25;98816.50;4992931;28;20034;-77
2021/09/12 18:02:02;;;;;;;3.30;1.98;;;;;;;18.00;74.20;98806.00;4990388;28;20026;-77
2021/09/12 18:04:27;;;;;;;5.22;2.00;;;;;;;17.95;73.91;98808.00;4981342;28;20098;-77
2021/09/12 18:06:53;;;;;;;2.55;2.22;;;;;;;17.86;74.38;98811.06;4973448;28;20042;-77
2021/09/12 18:09:18;;;;;;;2.40;2.08;;;;;;;17.83;75.01;98811.19;4973278;28;20035;-77
2021/09/12 18:11:44;;;;;;;5.22;1.83;;;;;;;17.88;74.98;98806.56;4973289;28;20534;-77
2021/09/12 18:14:12;;;;;;;3.08;2.05;;;;;;;17.87;74.20;98810.13;4973110;28;20117;-77
2021/09/12 18:16:37;;;;;;;3.35;2.40;;;;;;;17.93;74.18;98815.06;4973341;28;20369;-77
2021/09/12 18:19:03;;;;;;;2.17;1.90;;;;;;;17.91;74.40;98816.94;4973185;28;20019;-77
2021/09/12 18:21:28;;;;;;;4.72;2.33;;;;;;;17.84;74.92;98821.63;4988832;28;20432;-77
2021/09/12 18:23:53;;;;;;;4.07;2.40;;;;;;;17.82;75.19;98825.22;4992490;28;20026;-79
2021/09/12 18:26:19;;;;;;;2.22;2.03;;;;;;;17.87;75.70;98833.72;4992638;28;20065;-79
2021/09/12 18:28:44;;;;;;;4.28;2.13;;;;;;;17.75;75.86;98837.78;4992437;28;20395;-79
2021/09/12 18:31:09;;;;;;;7.03;2.35;;;;;;;17.63;76.74;98839.13;4992488;28;20026;-79
2021/09/12 18:33:35;;;;;;;4.20;2.20;;;;;;;17.46;77.24;98842.53;4984210;28;20025;-79
2021/09/12 18:36:00;;;;;;;2.47;2.28;;;;;;;17.36;77.93;98845.66;4973189;28;20435;-79